createdAt,value
2022-10-12T00:02:06.368Z,101069.88
2022-10-12T00:04:38.649Z,101069.98
2022-10-12T00:07:10.925Z,101072.02
2022-10-12T00:09:43.270Z,101069.16
2022-10-12T00:12:15.486Z,101067.75
2022-10-12T00:14:47.793Z,101066.04
2022-10-12T00:17:20.084Z,101069.21
2022-10-12T00:19:52.793Z,101074.86
2022-10-12T00:22:25.038Z,101075.10
2022-10-12T00:24:57.400Z,101084.27
2022-10-12T00:27:29.691Z,101085.33
2022-10-12T00:30:02.055Z,101086.45
2022-10-12T00:32:34.737Z,101086.85
2022-10-12T00:35:07.932Z,101088.89
2022-10-12T00:37:40.385Z,101089.20
2022-10-12T00:40:14.763Z,101090.55
2022-10-12T00:42:49.253Z,101090.30
2022-10-12T00:45:24.837Z,101093.20
2022-10-12T00:48:00.491Z,101092.32
2022-10-12T00:50:35.520Z,101088.75
2022-10-12T00:53:11.040Z,101090.14
2022-10-12T00:55:50.820Z,101091.48
2022-10-12T00:58:23.620Z,101091.06
2022-10-12T01:00:56.049Z,101093.53
2022-10-12T01:03:28.468Z,101095.23
2022-10-12T01:06:01.632Z,101094.05
2022-10-12T01:08:34.401Z,101097.95
2022-10-12T01:11:06.872Z,101097.77
2022-10-12T01:13:39.268Z,101101.73
2022-10-12T01:16:20.943Z,101099.48
2022-10-12T01:19:04.038Z,101103.52
2022-10-12T01:21:42.165Z,101100.81
2022-10-12T01:24:40.842Z,101103.19
2022-10-12T01:27:28.946Z,101102.08
2022-10-12T01:30:22.039Z,101099.96
2022-10-12T01:33:09.984Z,101098.18
2022-10-12T01:35:50.487Z,101102.23
2022-10-12T01:38:35.967Z,101102.30
2022-10-12T01:41:09.759Z,101102.00
2022-10-12T01:43:43.967Z,101098.47
2022-10-12T01:46:42.541Z,101100.56
2022-10-12T01:49:17.189Z,101105.60
2022-10-12T01:52:08.880Z,101100.59
2022-10-12T01:54:54.918Z,101099.46
2022-10-12T01:57:36.223Z,101102.77
2022-10-12T02:00:11.751Z,101103.54
2022-10-12T02:02:55.337Z,101104.10
2022-10-12T02:05:35.597Z,101105.09
2022-10-12T02:08:14.404Z,101099.98
2022-10-12T02:10:54.864Z,101103.20
2022-10-12T02:13:31.501Z,101098.81
2022-10-12T02:16:08.460Z,101096.91
2022-10-12T02:18:44.260Z,101094.46
2022-10-12T02:21:21.912Z,101095.34
2022-10-12T02:23:57.791Z,101096.16
2022-10-12T02:26:31.504Z,101095.93
2022-10-12T02:29:07.725Z,101095.70
2022-10-12T02:31:47.167Z,101099.16
2022-10-12T02:34:23.799Z,101096.21
2022-10-12T02:37:06.432Z,101100.73
2022-10-12T02:39:46.550Z,101107.05
2022-10-12T02:42:23.134Z,101112.77
2022-10-12T02:44:56.986Z,101113.68
2022-10-12T02:47:33.959Z,101109.73
2022-10-12T02:50:09.373Z,101109.95
2022-10-12T02:52:42.080Z,101113.85
2022-10-12T02:55:15.075Z,101112.94
2022-10-12T02:57:47.548Z,101115.69
2022-10-12T03:00:21.211Z,101115.27
2022-10-12T03:02:53.544Z,101114.36
2022-10-12T03:05:25.858Z,101112.40
2022-10-12T03:07:58.177Z,101109.67
2022-10-12T03:10:30.507Z,101112.04
2022-10-12T03:13:02.816Z,101107.38
2022-10-12T03:15:35.092Z,101108.70
2022-10-12T03:18:07.550Z,101113.54
2022-10-12T03:20:39.872Z,101112.96
2022-10-12T03:23:12.261Z,101112.80
2022-10-12T03:25:44.625Z,101117.75
2022-10-12T03:28:16.990Z,101113.98
2022-10-12T03:30:49.429Z,101118.40
2022-10-12T03:33:21.687Z,101122.58
2022-10-12T03:35:54.124Z,101126.42
2022-10-12T03:38:26.397Z,101124.89
2022-10-12T03:41:01.784Z,101119.67
2022-10-12T03:43:38.533Z,101118.77
2022-10-12T03:46:10.777Z,101118.02
2022-10-12T03:48:43.424Z,101120.27
2022-10-12T03:51:15.785Z,101122.06
2022-10-12T03:53:48.084Z,101124.19
2022-10-12T03:56:20.324Z,101126.27
2022-10-12T03:58:52.601Z,101128.85
2022-10-12T04:01:25.859Z,101129.73
2022-10-12T04:03:58.370Z,101128.93
2022-10-12T04:06:30.556Z,101128.77
2022-10-12T04:09:02.825Z,101130.00
2022-10-12T04:11:35.185Z,101130.98
2022-10-12T04:14:07.377Z,101131.10
2022-10-12T04:16:39.639Z,101130.20
2022-10-12T04:19:14.204Z,101129.42
2022-10-12T04:21:46.493Z,101132.38
2022-10-12T04:24:18.781Z,101131.28
2022-10-12T04:26:51.060Z,101137.08
2022-10-12T04:29:23.422Z,101142.18
2022-10-12T04:31:55.581Z,101146.41
2022-10-12T04:34:27.905Z,101149.55
2022-10-12T04:37:00.109Z,101147.70
2022-10-12T04:39:32.648Z,101152.52
2022-10-12T04:42:06.995Z,101149.23
2022-10-12T04:44:39.220Z,101150.95
2022-10-12T04:47:11.445Z,101151.92
2022-10-12T04:49:43.923Z,101148.60
2022-10-12T04:52:16.157Z,101152.00
2022-10-12T04:54:48.571Z,101153.87
2022-10-12T04:57:20.993Z,101157.33
2022-10-12T04:59:53.293Z,101159.34
2022-10-12T05:02:25.496Z,101158.16
2022-10-12T05:04:58.240Z,101158.19
2022-10-12T05:07:30.415Z,101158.50
2022-10-12T05:10:02.713Z,101164.29
2022-10-12T05:12:35.067Z,101158.67
2022-10-12T05:15:09.080Z,101159.79
2022-10-12T05:17:41.448Z,101156.83
2022-10-12T05:20:15.150Z,101160.46
2022-10-12T05:22:47.384Z,101162.52
2022-10-12T05:25:20.684Z,101165.83
2022-10-12T05:27:52.878Z,101163.98
2022-10-12T05:30:25.472Z,101162.02
2022-10-12T05:32:57.764Z,101163.41
2022-10-12T05:35:30.084Z,101162.98
2022-10-12T05:38:02.504Z,101164.33
2022-10-12T05:40:34.827Z,101167.69
2022-10-12T05:43:07.165Z,101168.52
2022-10-12T05:45:39.656Z,101175.23
2022-10-12T05:48:11.916Z,101178.08
2022-10-12T05:50:44.128Z,101181.09
2022-10-12T05:53:16.372Z,101188.57
2022-10-12T05:55:56.880Z,101192.59
2022-10-12T05:58:30.813Z,101198.23
2022-10-12T06:01:10.464Z,101192.73
2022-10-12T06:03:42.972Z,101193.95
2022-10-12T06:06:15.192Z,101193.04
2022-10-12T06:08:47.489Z,101191.62
2022-10-12T06:11:19.873Z,101192.73
2022-10-12T06:13:52.109Z,101190.95
2022-10-12T06:16:24.381Z,101192.71
2022-10-12T06:18:56.643Z,101194.80
2022-10-12T06:21:33.481Z,101192.09
2022-10-12T06:24:07.506Z,101193.89
2022-10-12T06:26:39.801Z,101196.69
2022-10-12T06:29:12.491Z,101191.66
2022-10-12T06:31:48.930Z,101197.20
2022-10-12T06:34:22.899Z,101198.09
2022-10-12T06:36:59.473Z,101201.05
2022-10-12T06:39:33.872Z,101198.70
2022-10-12T06:42:07.781Z,101199.59
2022-10-12T06:44:41.006Z,101200.10
2022-10-12T06:47:13.353Z,101200.52
2022-10-12T06:49:45.570Z,101198.80
2022-10-12T06:52:17.833Z,101201.96
2022-10-12T06:54:50.044Z,101202.68
2022-10-12T06:57:22.320Z,101205.12
2022-10-12T06:59:54.535Z,101204.38
2022-10-12T07:02:26.822Z,101206.47
2022-10-12T07:04:59.058Z,101210.44
2022-10-12T07:07:32.873Z,101207.75
2022-10-12T07:10:07.599Z,101207.77
2022-10-12T07:12:40.534Z,101208.66
2022-10-12T07:15:14.145Z,101209.37
2022-10-12T07:17:46.410Z,101213.16
2022-10-12T07:20:18.784Z,101220.80
2022-10-12T07:22:51.071Z,101222.48
2022-10-12T07:25:23.365Z,101224.64
2022-10-12T07:27:55.683Z,101228.75
2022-10-12T07:30:27.975Z,101227.20
2022-10-12T07:33:00.197Z,101229.02
2022-10-12T07:35:32.509Z,101227.25
2022-10-12T07:38:05.380Z,101227.48
2022-10-12T07:40:38.227Z,101226.23
2022-10-12T07:43:16.109Z,101226.02
2022-10-12T07:45:48.977Z,101228.80
2022-10-12T07:48:21.260Z,101227.38
2022-10-12T07:50:53.541Z,101222.83
2022-10-12T07:53:25.813Z,101220.86
2022-10-12T07:56:04.278Z,101220.44
2022-10-12T07:58:36.660Z,101217.77
2022-10-12T08:01:11.345Z,101219.95
2022-10-12T08:03:43.734Z,101213.73
2022-10-12T08:06:18.314Z,101209.11
2022-10-12T08:08:50.907Z,101212.49
2022-10-12T08:11:23.399Z,101211.88
2022-10-12T08:13:56.381Z,101213.60
2022-10-12T08:16:28.573Z,101217.17
2022-10-12T08:19:02.727Z,101215.48
2022-10-12T08:21:34.989Z,101218.62
2022-10-12T08:24:09.513Z,101216.41
2022-10-12T08:26:42.041Z,101215.20
2022-10-12T08:29:14.227Z,101213.82
2022-10-12T08:31:46.514Z,101212.36
2022-10-12T08:34:18.868Z,101206.79
2022-10-12T08:36:51.981Z,101208.05
2022-10-12T08:39:24.367Z,101214.73
2022-10-12T08:42:08.134Z,101213.55
2022-10-12T08:45:07.915Z,101210.55
2022-10-12T08:47:44.033Z,101210.02
2022-10-12T08:50:31.101Z,101212.48
2022-10-12T08:53:12.905Z,101211.84
2022-10-12T08:55:47.315Z,101211.04
2022-10-12T08:58:21.934Z,101209.11
2022-10-12T09:00:58.624Z,101206.73
2022-10-12T09:03:44.288Z,101207.39
2022-10-12T09:06:19.965Z,101212.77
2022-10-12T09:09:06.377Z,101205.95
2022-10-12T09:11:53.186Z,101207.99
2022-10-12T09:14:28.703Z,101204.90
2022-10-12T09:17:04.001Z,101207.27
2022-10-12T09:19:42.009Z,101204.14
2022-10-12T09:22:19.683Z,101203.10
2022-10-12T09:24:53.087Z,101202.80
2022-10-12T09:27:25.448Z,101202.73
2022-10-12T09:30:03.342Z,101203.67
2022-10-12T09:33:00.776Z,101204.77
2022-10-12T09:35:33.670Z,101202.55
2022-10-12T09:38:07.392Z,101201.42
2022-10-12T09:40:40.396Z,101201.89
2022-10-12T09:43:12.931Z,101202.85
2022-10-12T09:45:45.259Z,101202.00
2022-10-12T09:48:20.858Z,101203.59
2022-10-12T09:50:55.801Z,101202.52
2022-10-12T09:53:36.154Z,101204.08
2022-10-12T09:56:16.081Z,101206.02
2022-10-12T09:58:55.341Z,101205.58
2022-10-12T10:01:29.911Z,101202.55
2022-10-12T10:04:15.285Z,101195.65
2022-10-12T10:06:48.494Z,101195.13
2022-10-12T10:09:32.316Z,101194.57
2022-10-12T10:12:22.976Z,101200.86
2022-10-12T10:14:57.919Z,101196.70
2022-10-12T10:17:33.787Z,101195.46
2022-10-12T10:20:23.795Z,101196.85
2022-10-12T10:22:56.368Z,101197.35
2022-10-12T10:25:29.515Z,101198.02
2022-10-12T10:28:30.023Z,101198.73
2022-10-12T10:31:04.961Z,101198.06
2022-10-12T10:33:36.397Z,101198.08
2022-10-12T10:36:14.955Z,101197.41
2022-10-12T10:38:59.218Z,101198.55
2022-10-12T10:41:39.624Z,101193.50
2022-10-12T10:44:25.651Z,101194.73
2022-10-12T10:47:02.401Z,101194.68
2022-10-12T10:49:42.386Z,101192.16
2022-10-12T10:52:25.076Z,101191.41
2022-10-12T10:55:20.340Z,101190.23
2022-10-12T10:58:02.306Z,101182.36
2022-10-12T11:00:39.698Z,101186.10
2022-10-12T11:06:08.429Z,101180.67
2022-10-12T11:08:42.858Z,101179.28
2022-10-12T11:11:19.951Z,101180.16
2022-10-12T11:13:59.348Z,101177.46
2022-10-12T11:16:35.537Z,101180.65
2022-10-12T11:19:21.200Z,101179.20
2022-10-12T11:21:57.186Z,101177.86
2022-10-12T11:24:34.746Z,101176.64
2022-10-12T11:27:13.724Z,101175.05
2022-10-12T11:29:54.119Z,101176.19
2022-10-12T11:32:40.012Z,101174.46
2022-10-12T11:35:18.729Z,101175.66
2022-10-12T11:37:55.207Z,101173.38
2022-10-12T11:40:55.620Z,101168.93
2022-10-12T11:43:23.888Z,101168.83
2022-10-12T11:46:03.021Z,101171.27
2022-10-12T11:48:40.895Z,101174.95
2022-10-12T11:51:14.177Z,101172.68
2022-10-12T11:53:56.231Z,101173.55
2022-10-12T11:56:32.719Z,101173.91
2022-10-12T11:59:11.853Z,101174.11
2022-10-12T12:01:53.993Z,101172.79
2022-10-12T12:04:48.275Z,101167.42
2022-10-12T12:07:46.476Z,101164.55
2022-10-12T12:11:03.747Z,101161.63
2022-10-12T12:13:35.991Z,101164.38
2022-10-12T12:16:31.874Z,101169.67
2022-10-12T12:19:40.175Z,101166.91
2022-10-12T12:22:28.839Z,101167.09
2022-10-12T12:25:20.246Z,101162.02
2022-10-12T12:27:56.058Z,101166.24
2022-10-12T12:30:34.396Z,101163.91
2022-10-12T12:33:26.462Z,101165.25
2022-10-12T12:36:01.797Z,101167.40
2022-10-12T12:38:36.888Z,101164.05
2022-10-12T12:41:12.872Z,101165.30
2022-10-12T12:44:06.168Z,101165.73
2022-10-12T12:50:37.579Z,101168.86
2022-10-12T12:53:18.355Z,101167.63
2022-10-12T12:56:17.483Z,101165.20
2022-10-12T12:59:03.552Z,101164.20
2022-10-12T13:01:57.293Z,101161.35
2022-10-12T13:05:01.547Z,101160.64
2022-10-12T13:07:52.055Z,101163.21
2022-10-12T13:10:39.645Z,101163.29
2022-10-12T13:14:27.169Z,101165.52
2022-10-12T13:20:16.997Z,101164.64
2022-10-12T13:22:51.556Z,101164.39
2022-10-12T13:25:33.849Z,101166.64
2022-10-12T13:28:13.811Z,101167.08
2022-10-12T13:30:52.553Z,101169.02
2022-10-12T13:33:32.610Z,101165.52
2022-10-12T13:36:09.787Z,101164.56
2022-10-12T13:38:42.201Z,101167.40
2022-10-12T13:41:17.390Z,101168.85
2022-10-12T13:43:55.584Z,101172.12
2022-10-12T13:46:45.623Z,101168.31
2022-10-12T13:49:21.490Z,101169.20
2022-10-12T13:51:55.884Z,101169.88
2022-10-12T13:54:36.017Z,101166.27
2022-10-12T13:57:20.149Z,101167.30
2022-10-12T13:59:57.811Z,101169.19
2022-10-12T14:02:33.916Z,101168.14
2022-10-12T14:05:16.933Z,101170.14
2022-10-12T14:07:50.841Z,101169.73
2022-10-12T14:10:25.755Z,101167.33
2022-10-12T14:12:57.740Z,101165.26
2022-10-12T14:15:36.081Z,101163.06
2022-10-12T14:18:38.500Z,101160.98
2022-10-12T14:21:17.517Z,101157.70
2022-10-12T14:23:51.979Z,101160.63
2022-10-12T14:26:30.562Z,101158.14
2022-10-12T14:29:23.063Z,101160.73
2022-10-12T14:31:57.090Z,101155.12
2022-10-12T14:34:37.753Z,101157.30
2022-10-12T14:37:26.514Z,101159.16
2022-10-12T14:40:03.327Z,101157.41
2022-10-12T14:42:37.059Z,101154.63
2022-10-12T14:45:25.777Z,101156.88
2022-10-12T14:47:59.752Z,101153.50
2022-10-12T14:50:34.054Z,101153.45
2022-10-12T14:53:11.608Z,101155.80
2022-10-12T14:55:44.464Z,101148.73
2022-10-12T14:58:19.668Z,101152.80
2022-10-12T15:00:51.958Z,101150.71
2022-10-12T15:03:24.160Z,101151.16
2022-10-12T15:05:56.359Z,101151.53
2022-10-12T15:08:28.625Z,101150.15
2022-10-12T15:11:00.779Z,101150.56
2022-10-12T15:13:32.928Z,101147.97
2022-10-12T15:16:11.359Z,101149.57
2022-10-12T15:18:43.449Z,101148.66
2022-10-12T15:21:16.277Z,101150.96
2022-10-12T15:23:48.737Z,101147.05
2022-10-12T15:26:21.029Z,101149.09
2022-10-12T15:28:53.171Z,101149.23
2022-10-12T15:31:25.365Z,101147.31
2022-10-12T15:33:57.592Z,101144.77
2022-10-12T15:36:29.728Z,101145.34
2022-10-12T15:39:01.847Z,101144.83
2022-10-12T15:41:34.328Z,101143.97
2022-10-12T15:44:07.320Z,101141.61
2022-10-12T15:46:39.489Z,101142.84
2022-10-12T15:49:15.121Z,101142.23
2022-10-12T15:51:51.746Z,101140.77
2022-10-12T15:54:23.931Z,101143.58
2022-10-12T15:56:56.087Z,101144.77
2022-10-12T15:59:28.437Z,101148.41
2022-10-12T16:02:00.931Z,101147.23
2022-10-12T16:04:33.092Z,101148.84
2022-10-12T16:07:05.219Z,101147.67
2022-10-12T16:09:37.396Z,101147.52
2022-10-12T16:12:09.778Z,101148.80
2022-10-12T16:14:41.994Z,101145.58
2022-10-12T16:17:14.538Z,101145.30
2022-10-12T16:19:46.945Z,101146.27
2022-10-12T16:22:19.181Z,101145.80
2022-10-12T16:24:51.372Z,101143.60
2022-10-12T16:27:23.468Z,101141.07
2022-10-12T16:29:56.446Z,101138.27
2022-10-12T16:32:28.685Z,101140.30
2022-10-12T16:35:00.829Z,101136.88
2022-10-12T16:37:33.155Z,101137.11
2022-10-12T16:40:07.262Z,101134.73
2022-10-12T16:42:39.387Z,101137.83
2022-10-12T16:45:12.553Z,101139.86
2022-10-12T16:47:44.695Z,101142.12
2022-10-12T16:50:17.012Z,101141.77
2022-10-12T16:52:49.403Z,101143.41
2022-10-12T16:55:22.187Z,101142.22
2022-10-12T16:57:54.340Z,101142.14
2022-10-12T17:00:26.786Z,101145.52
2022-10-12T17:02:58.906Z,101143.74
2022-10-12T17:05:31.177Z,101145.10
2022-10-12T17:08:03.429Z,101146.85
2022-10-12T17:10:35.588Z,101146.67
2022-10-12T17:13:07.989Z,101153.91
2022-10-12T17:15:43.796Z,101154.00
2022-10-12T17:18:16.214Z,101153.64
2022-10-12T17:20:50.743Z,101158.08
2022-10-12T17:23:25.110Z,101152.78
2022-10-12T17:26:02.500Z,101153.27
2022-10-12T17:28:37.581Z,101151.13
2022-10-12T17:31:11.902Z,101150.95
2022-10-12T17:33:44.285Z,101150.92
2022-10-12T17:36:16.846Z,101150.67
2022-10-12T17:38:53.319Z,101151.84
2022-10-12T17:41:26.298Z,101149.17
2022-10-12T17:43:59.003Z,101148.70
2022-10-12T17:46:31.164Z,101149.48
2022-10-12T17:49:03.875Z,101152.56
2022-10-12T17:51:36.121Z,101147.84
2022-10-12T17:54:08.435Z,101146.04
2022-10-12T17:56:40.605Z,101145.05
2022-10-12T17:59:14.941Z,101145.02
2022-10-12T18:01:47.484Z,101146.35
2022-10-12T18:04:20.139Z,101142.66
2022-10-12T18:06:52.412Z,101142.84
2022-10-12T18:09:24.797Z,101143.20
2022-10-12T18:11:56.963Z,101143.33
2022-10-12T18:14:29.239Z,101146.61
2022-10-12T18:17:01.561Z,101144.88
2022-10-12T18:19:33.807Z,101146.72
2022-10-12T18:22:06.008Z,101151.39
2022-10-12T18:24:38.239Z,101153.98
2022-10-12T18:27:10.429Z,101152.92
2022-10-12T18:29:42.719Z,101157.70
2022-10-12T18:32:14.983Z,101156.36
2022-10-12T18:34:47.545Z,101156.81
2022-10-12T18:37:19.797Z,101159.16
2022-10-12T18:39:52.286Z,101157.13
2022-10-12T18:42:24.455Z,101156.12
2022-10-12T18:44:56.937Z,101157.92
2022-10-12T18:47:29.186Z,101159.83
2022-10-12T18:50:01.548Z,101158.20
2022-10-12T18:52:34.134Z,101161.13
2022-10-12T18:55:07.184Z,101164.46
2022-10-12T18:57:40.253Z,101165.02
2022-10-12T19:00:15.398Z,101166.19
2022-10-12T19:02:45.951Z,101164.14
2022-10-12T19:05:18.362Z,101169.01
2022-10-12T19:07:50.637Z,101163.48
2022-10-12T19:10:23.072Z,101163.69
2022-10-12T19:12:55.248Z,101166.54
2022-10-12T19:15:28.653Z,101165.45
2022-10-12T19:18:00.840Z,101164.40
2022-10-12T19:20:33.611Z,101166.92
2022-10-12T19:23:05.860Z,101169.36
2022-10-12T19:25:41.108Z,101168.08
2022-10-12T19:28:13.343Z,101165.73
2022-10-12T19:30:45.601Z,101166.44
2022-10-12T19:33:17.755Z,101163.19
2022-10-12T19:35:50.197Z,101164.01
2022-10-12T19:38:22.842Z,101164.96
2022-10-12T19:40:55.045Z,101166.69
2022-10-12T19:43:27.860Z,101163.33
2022-10-12T19:46:04.947Z,101163.95
2022-10-12T19:48:37.348Z,101161.20
2022-10-12T19:51:12.169Z,101160.91
2022-10-12T19:53:44.607Z,101165.14
2022-10-12T19:56:20.961Z,101167.61
2022-10-12T19:58:55.451Z,101164.45
2022-10-12T20:01:29.760Z,101168.95
2022-10-12T20:04:02.694Z,101165.25
2022-10-12T20:06:35.251Z,101162.70
2022-10-12T20:09:09.061Z,101164.84
2022-10-12T20:11:42.279Z,101166.67
2022-10-12T20:14:14.548Z,101164.90
2022-10-12T20:16:46.921Z,101161.52
2022-10-12T20:19:19.309Z,101163.61
2022-10-12T20:21:51.804Z,101164.00
2022-10-12T20:24:25.075Z,101162.35
2022-10-12T20:26:57.646Z,101158.41
2022-10-12T20:29:29.931Z,101163.15
2022-10-12T20:32:02.340Z,101162.11
2022-10-12T20:34:35.062Z,101167.55
2022-10-12T20:37:07.368Z,101168.42
2022-10-12T20:39:39.612Z,101163.92
2022-10-12T20:42:12.081Z,101167.45
2022-10-12T20:44:44.616Z,101171.54
2022-10-12T20:47:17.766Z,101169.20
2022-10-12T20:49:50.321Z,101164.23
2022-10-12T20:52:22.646Z,101166.59
2022-10-12T20:54:55.282Z,101164.11
2022-10-12T20:57:27.561Z,101160.73
2022-10-12T20:59:59.737Z,101155.21
2022-10-12T21:02:33.519Z,101155.70
2022-10-12T21:05:06.036Z,101156.25
2022-10-12T21:07:38.521Z,101154.77
2022-10-12T21:10:12.240Z,101157.23
2022-10-12T21:12:44.363Z,101158.32
2022-10-12T21:15:16.930Z,101158.04
2022-10-12T21:17:49.228Z,101158.39
2022-10-12T21:20:21.590Z,101157.54
2022-10-12T21:22:53.870Z,101156.46
2022-10-12T21:25:26.445Z,101159.85
2022-10-12T21:27:58.724Z,101164.88
2022-10-12T21:30:30.927Z,101167.33
2022-10-12T21:33:02.984Z,101170.91
2022-10-12T21:35:35.545Z,101168.23
2022-10-12T21:38:08.145Z,101168.95
2022-10-12T21:40:40.378Z,101167.26
2022-10-12T21:43:12.698Z,101167.61
2022-10-12T21:45:44.843Z,101171.47
2022-10-12T21:48:16.983Z,101172.80
2022-10-12T21:50:49.164Z,101173.80
2022-10-12T21:53:21.373Z,101173.55
2022-10-12T21:55:53.904Z,101174.95
2022-10-12T21:58:26.078Z,101173.02
2022-10-12T22:01:08.638Z,101172.77
2022-10-12T22:03:40.979Z,101172.60
2022-10-12T22:06:18.033Z,101172.70
2022-10-12T22:08:55.120Z,101175.14
2022-10-12T22:11:29.674Z,101174.44
2022-10-12T22:14:03.988Z,101171.23
2022-10-12T22:16:37.898Z,101171.63
2022-10-12T22:19:14.451Z,101170.79
2022-10-12T22:21:47.208Z,101173.42
2022-10-12T22:24:19.513Z,101176.63
2022-10-12T22:26:51.928Z,101176.20
2022-10-12T22:29:24.111Z,101178.55
2022-10-12T22:31:56.282Z,101175.40
2022-10-12T22:34:28.681Z,101178.74
2022-10-12T22:37:00.948Z,101173.46
2022-10-12T22:39:33.191Z,101174.63
2022-10-12T22:42:05.371Z,101170.95
2022-10-12T22:44:37.482Z,101168.91
2022-10-12T22:47:09.943Z,101168.16
2022-10-12T22:49:42.148Z,101164.80
2022-10-12T22:52:14.490Z,101163.70
2022-10-12T22:54:50.039Z,101160.62
2022-10-12T22:57:22.196Z,101158.55
2022-10-12T22:59:54.457Z,101160.34
2022-10-12T23:02:26.624Z,101159.77
2022-10-12T23:04:58.761Z,101156.09
2022-10-12T23:07:30.880Z,101157.60
2022-10-12T23:10:03.092Z,101153.39
2022-10-12T23:12:36.039Z,101159.52
2022-10-12T23:15:09.893Z,101161.34
2022-10-12T23:17:42.094Z,101162.05
2022-10-12T23:20:14.745Z,101165.66
2022-10-12T23:22:47.622Z,101160.98
2022-10-12T23:25:19.977Z,101164.12
2022-10-12T23:27:52.232Z,101166.64
2022-10-12T23:30:24.529Z,101167.55
2022-10-12T23:32:56.723Z,101169.11
2022-10-12T23:35:31.380Z,101169.02
2022-10-12T23:38:03.739Z,101164.21
2022-10-12T23:40:37.833Z,101166.38
2022-10-12T23:43:11.808Z,101164.41
2022-10-12T23:45:45.715Z,101164.59
2022-10-12T23:48:17.968Z,101158.09
2022-10-12T23:50:52.076Z,101157.39
2022-10-12T23:53:25.955Z,101162.00
2022-10-12T23:55:58.136Z,101162.17
2022-10-12T23:58:30.370Z,101163.14
